createdAt,value
2022-11-12T00:00:28.323Z,100.00
2022-11-12T00:03:14.562Z,100.00
2022-11-12T00:06:01.193Z,100.00
2022-11-12T00:08:47.500Z,100.00
2022-11-12T00:11:35.155Z,100.00
2022-11-12T00:14:21.598Z,100.00
2022-11-12T00:17:07.648Z,100.00
2022-11-12T00:19:53.980Z,100.00
2022-11-12T00:22:40.458Z,100.00
2022-11-12T00:25:26.585Z,100.00
2022-11-12T00:28:14.181Z,100.00
2022-11-12T00:31:00.372Z,100.00
2022-11-12T00:33:46.448Z,100.00
2022-11-12T00:36:35.694Z,100.00
2022-11-12T00:39:22.275Z,100.00
2022-11-12T00:42:08.318Z,100.00
2022-11-12T00:44:55.900Z,100.00
2022-11-12T00:47:41.969Z,100.00
2022-11-12T00:50:28.206Z,100.00
2022-11-12T00:53:14.332Z,100.00
2022-11-12T00:56:05.031Z,100.00
2022-11-12T00:58:51.334Z,100.00
2022-11-12T01:01:39.371Z,100.00
2022-11-12T01:04:25.740Z,100.00
2022-11-12T01:07:12.090Z,100.00
2022-11-12T01:09:58.047Z,100.00
2022-11-12T01:12:44.286Z,100.00
2022-11-12T01:15:30.499Z,100.00
2022-11-12T01:18:17.851Z,100.00
2022-11-12T01:21:05.434Z,100.00
2022-11-12T01:23:52.454Z,100.00
2022-11-12T01:26:39.387Z,100.00
2022-11-12T01:29:25.992Z,100.00
2022-11-12T01:32:12.390Z,100.00
2022-11-12T01:34:59.872Z,100.00
2022-11-12T01:37:45.976Z,100.00
2022-11-12T01:40:33.143Z,100.00
2022-11-12T01:43:19.229Z,100.00
2022-11-12T01:46:13.329Z,100.00
2022-11-12T01:49:02.920Z,100.00
2022-11-12T01:51:56.133Z,100.00
2022-11-12T01:54:44.575Z,100.00
2022-11-12T01:57:35.753Z,100.00
2022-11-12T02:00:22.375Z,100.00
2022-11-12T02:03:13.712Z,100.00
2022-11-12T02:06:04.138Z,100.00
2022-11-12T02:08:52.612Z,100.00
2022-11-12T02:11:38.966Z,100.00
2022-11-12T02:14:24.190Z,100.00
2022-11-12T02:17:10.468Z,100.00
2022-11-12T02:19:59.876Z,100.00
2022-11-12T02:22:47.464Z,100.00
2022-11-12T02:25:34.482Z,100.00
2022-11-12T02:28:20.912Z,100.00
2022-11-12T02:31:07.432Z,100.00
2022-11-12T02:33:53.949Z,100.00
2022-11-12T02:36:40.138Z,100.00
2022-11-12T02:39:27.727Z,100.00
2022-11-12T02:42:13.940Z,100.00
2022-11-12T02:45:00.083Z,100.00
2022-11-12T02:47:46.302Z,100.00
2022-11-12T02:50:32.475Z,100.00
2022-11-12T02:53:18.597Z,100.00
2022-11-12T02:56:06.787Z,100.00
2022-11-12T02:58:52.956Z,100.00
2022-11-12T03:01:38.916Z,100.00
2022-11-12T03:04:25.130Z,100.00
2022-11-12T03:07:11.444Z,100.00
2022-11-12T03:09:57.459Z,100.00
2022-11-12T03:12:44.909Z,100.00
2022-11-12T03:15:31.296Z,100.00
2022-11-12T03:18:17.664Z,100.00
2022-11-12T03:21:04.019Z,100.00
2022-11-12T03:23:50.450Z,100.00
2022-11-12T03:26:36.581Z,100.00
2022-11-12T03:29:24.018Z,100.00
2022-11-12T03:32:10.253Z,100.00
2022-11-12T03:34:56.442Z,100.00
2022-11-12T03:37:42.628Z,100.00
2022-11-12T03:40:29.311Z,100.00
2022-11-12T03:43:15.554Z,100.00
2022-11-12T03:46:03.145Z,100.00
2022-11-12T03:48:49.307Z,100.00
2022-11-12T03:51:35.396Z,100.00
2022-11-12T03:54:21.602Z,100.00
2022-11-12T03:57:07.893Z,100.00
2022-11-12T03:59:54.014Z,100.00
2022-11-12T04:02:42.181Z,100.00
2022-11-12T04:05:46.789Z,100.00
2022-11-12T04:08:39.174Z,100.00
2022-11-12T04:11:25.525Z,100.00
2022-11-12T04:14:11.684Z,100.00
2022-11-12T04:17:15.302Z,100.00
2022-11-12T04:20:20.320Z,100.00
2022-11-12T04:23:06.711Z,100.00
2022-11-12T04:26:10.280Z,100.00
2022-11-12T04:29:13.979Z,100.00
2022-11-12T04:32:00.254Z,100.00
2022-11-12T04:34:46.712Z,100.00
2022-11-12T04:37:45.110Z,100.00
2022-11-12T04:40:49.491Z,100.00
2022-11-12T04:43:52.302Z,100.00
2022-11-12T04:46:38.549Z,100.00
2022-11-12T04:49:24.490Z,100.00
2022-11-12T04:52:10.655Z,100.00
2022-11-12T04:54:59.145Z,100.00
2022-11-12T04:57:45.312Z,100.00
2022-11-12T05:00:31.949Z,100.00
2022-11-12T05:03:18.075Z,100.00
2022-11-12T05:06:04.865Z,100.00
2022-11-12T05:08:50.939Z,100.00
2022-11-12T05:11:38.523Z,100.00
2022-11-12T05:14:24.931Z,100.00
2022-11-12T05:17:11.183Z,100.00
2022-11-12T05:19:57.203Z,100.00
2022-11-12T05:22:54.283Z,100.00
2022-11-12T05:25:49.743Z,100.00
2022-11-12T05:28:37.180Z,100.00
2022-11-12T05:31:23.303Z,100.00
2022-11-12T05:34:09.525Z,100.00
2022-11-12T05:36:55.658Z,100.00
2022-11-12T05:39:41.937Z,100.00
2022-11-12T05:42:28.335Z,100.00
2022-11-12T05:45:15.991Z,100.00
2022-11-12T05:48:02.390Z,100.00
2022-11-12T05:51:11.889Z,100.00
2022-11-12T05:53:56.875Z,100.00
2022-11-12T05:56:42.946Z,100.00
2022-11-12T05:59:29.044Z,100.00
2022-11-12T06:02:16.592Z,100.00
2022-11-12T06:05:02.920Z,100.00
2022-11-12T06:07:49.244Z,100.00
2022-11-12T06:10:36.122Z,100.00
2022-11-12T06:13:24.495Z,100.00
2022-11-12T06:16:10.901Z,100.00
2022-11-12T06:18:58.923Z,100.00
2022-11-12T06:21:45.423Z,100.00
2022-11-12T06:24:35.405Z,100.00
2022-11-12T06:27:21.652Z,100.00
2022-11-12T06:30:09.158Z,100.00
2022-11-12T06:32:55.553Z,100.00
2022-11-12T06:35:43.405Z,100.00
2022-11-12T06:38:30.946Z,100.00
2022-11-12T06:41:17.242Z,100.00
2022-11-12T06:44:04.854Z,100.00
2022-11-12T06:46:51.552Z,100.00
2022-11-12T06:49:37.913Z,100.00
2022-11-12T06:52:25.528Z,100.00
2022-11-12T06:55:11.710Z,100.00
2022-11-12T06:57:57.958Z,100.00
2022-11-12T07:00:44.064Z,99.20
2022-11-12T07:03:30.098Z,98.84
2022-11-12T07:06:20.182Z,97.24
2022-11-12T07:09:08.221Z,98.76
2022-11-12T07:11:54.516Z,99.57
2022-11-12T07:14:40.802Z,96.79
2022-11-12T07:17:26.997Z,98.49
2022-11-12T07:20:13.633Z,98.53
2022-11-12T07:23:01.285Z,99.62
2022-11-12T07:25:56.677Z,99.92
2022-11-12T07:28:43.223Z,100.00
2022-11-12T07:31:29.501Z,100.00
2022-11-12T07:34:15.579Z,99.76
2022-11-12T07:37:01.861Z,100.00
2022-11-12T07:39:48.036Z,99.45
2022-11-12T07:42:36.602Z,100.00
2022-11-12T07:45:23.112Z,99.77
2022-11-12T07:48:09.324Z,98.99
2022-11-12T07:51:01.712Z,97.93
2022-11-12T07:53:48.908Z,97.89
2022-11-12T07:56:35.253Z,98.98
2022-11-12T07:59:22.826Z,98.75
2022-11-12T08:02:10.248Z,98.94
2022-11-12T08:04:56.455Z,99.01
2022-11-12T08:07:42.850Z,100.00
2022-11-12T08:10:29.551Z,99.33
2022-11-12T08:13:15.877Z,99.89
2022-11-12T08:16:03.627Z,99.69
2022-11-12T08:18:50.084Z,99.05
2022-11-12T08:21:36.599Z,100.00
2022-11-12T08:24:22.783Z,99.08
2022-11-12T08:27:09.115Z,98.22
2022-11-12T08:29:55.358Z,98.87
2022-11-12T08:32:42.947Z,98.23
2022-11-12T08:35:30.874Z,98.94
2022-11-12T08:38:17.891Z,98.38
2022-11-12T08:41:06.518Z,98.13
2022-11-12T08:43:53.036Z,98.00
2022-11-12T08:46:39.119Z,97.04
2022-11-12T08:49:26.696Z,96.39
2022-11-12T08:52:12.861Z,95.75
2022-11-12T08:54:58.919Z,94.82
2022-11-12T08:57:46.081Z,94.57
2022-11-12T09:00:34.069Z,94.59
2022-11-12T09:03:21.807Z,92.10
2022-11-12T09:06:09.587Z,93.29
2022-11-12T09:08:55.733Z,94.85
2022-11-12T09:11:41.953Z,95.69
2022-11-12T09:14:28.220Z,95.66
2022-11-12T09:17:15.548Z,95.12
2022-11-12T09:20:01.648Z,94.78
2022-11-12T09:22:49.212Z,94.73
2022-11-12T09:25:36.485Z,93.65
2022-11-12T09:28:22.641Z,93.66
2022-11-12T09:31:09.640Z,92.41
2022-11-12T09:33:55.841Z,92.68
2022-11-12T09:36:42.221Z,93.26
2022-11-12T09:39:29.616Z,94.30
2022-11-12T09:42:19.728Z,93.71
2022-11-12T09:45:14.121Z,93.28
2022-11-12T09:48:07.550Z,95.23
2022-11-12T09:50:59.705Z,95.87
2022-11-12T09:53:51.673Z,97.15
2022-11-12T09:56:39.377Z,95.64
2022-11-12T09:59:29.599Z,93.50
2022-11-12T10:02:27.439Z,93.53
2022-11-12T10:05:27.336Z,93.88
2022-11-12T10:08:29.999Z,100.00
2022-11-12T10:12:01.260Z,96.12
2022-11-12T10:15:21.974Z,94.83
2022-11-12T10:18:14.375Z,93.18
2022-11-12T10:21:08.945Z,93.22
2022-11-12T10:23:55.590Z,93.08
2022-11-12T10:26:41.916Z,92.64
2022-11-12T10:29:33.060Z,92.15
2022-11-12T10:32:20.938Z,92.64
2022-11-12T10:35:07.891Z,92.69
2022-11-12T10:37:58.370Z,91.95
2022-11-12T10:40:44.833Z,91.99
2022-11-12T10:43:31.070Z,91.62
2022-11-12T10:46:20.641Z,91.16
2022-11-12T10:49:24.353Z,91.55
2022-11-12T10:52:23.089Z,91.89
2022-11-12T10:55:18.652Z,91.35
2022-11-12T10:58:07.004Z,92.05
2022-11-12T11:00:57.284Z,92.70
2022-11-12T11:03:48.423Z,96.31
2022-11-12T11:06:36.125Z,100.00
2022-11-12T11:09:22.366Z,96.19
2022-11-12T11:12:23.873Z,92.96
2022-11-12T11:15:20.496Z,90.89
2022-11-12T11:18:09.163Z,91.86
2022-11-12T11:21:04.802Z,91.53
2022-11-12T11:23:58.564Z,91.16
2022-11-12T11:26:57.573Z,91.94
2022-11-12T11:30:02.818Z,92.18
2022-11-12T11:33:10.235Z,92.00
2022-11-12T11:36:21.097Z,92.92
2022-11-12T11:39:20.735Z,92.78
2022-11-12T11:42:25.414Z,93.16
2022-11-12T11:45:17.939Z,92.18
2022-11-12T11:48:13.787Z,92.13
2022-11-12T11:51:05.976Z,91.47
2022-11-12T11:54:03.961Z,92.29
2022-11-12T11:56:56.938Z,92.34
2022-11-12T11:59:54.597Z,94.93
2022-11-12T12:03:06.596Z,91.99
2022-11-12T12:06:16.757Z,95.28
2022-11-12T12:09:28.127Z,93.25
2022-11-12T12:12:27.972Z,93.23
2022-11-12T12:15:37.699Z,93.32
2022-11-12T12:18:35.476Z,93.74
2022-11-12T12:21:25.894Z,94.73
2022-11-12T12:24:19.029Z,93.95
2022-11-12T12:27:13.303Z,93.54
2022-11-12T12:30:04.701Z,92.84
2022-11-12T12:32:56.817Z,93.82
2022-11-12T12:35:53.663Z,91.59
2022-11-12T12:38:45.430Z,92.33
2022-11-12T12:41:40.118Z,92.82
2022-11-12T12:44:44.877Z,92.34
2022-11-12T12:47:36.957Z,93.47
2022-11-12T12:50:24.435Z,92.54
2022-11-12T12:53:19.555Z,92.78
2022-11-12T12:56:07.511Z,92.88
2022-11-12T12:58:55.162Z,92.94
2022-11-12T13:01:41.531Z,93.62
2022-11-12T13:04:53.612Z,91.45
2022-11-12T13:07:43.092Z,95.25
2022-11-12T13:10:48.295Z,91.75
2022-11-12T13:13:36.286Z,90.87
2022-11-12T13:16:56.887Z,91.31
2022-11-12T13:19:47.437Z,91.61
2022-11-12T13:22:53.695Z,91.59
2022-11-12T13:25:40.492Z,92.03
2022-11-12T13:28:29.224Z,92.75
2022-11-12T13:31:28.874Z,91.75
2022-11-12T13:34:22.500Z,92.36
2022-11-12T13:37:21.009Z,92.68
2022-11-12T13:40:14.598Z,91.99
2022-11-12T13:43:07.973Z,91.46
2022-11-12T13:46:00.314Z,91.00
2022-11-12T13:48:49.009Z,91.70
2022-11-12T13:51:40.351Z,91.70
2022-11-12T13:54:34.485Z,92.70
2022-11-12T13:57:29.488Z,93.05
2022-11-12T14:00:26.337Z,92.94
2022-11-12T14:03:18.211Z,92.19
2022-11-12T14:06:15.567Z,93.32
2022-11-12T14:09:21.199Z,92.97
2022-11-12T14:12:34.960Z,92.95
2022-11-12T14:15:36.976Z,94.17
2022-11-12T14:18:34.996Z,94.86
2022-11-12T14:21:22.641Z,95.08
2022-11-12T14:24:13.360Z,95.96
2022-11-12T14:26:59.694Z,95.95
2022-11-12T14:29:47.220Z,96.46
2022-11-12T14:32:37.715Z,96.99
2022-11-12T14:35:30.914Z,96.89
2022-11-12T14:38:21.172Z,97.35
2022-11-12T14:41:10.767Z,96.79
2022-11-12T14:44:11.959Z,96.66
2022-11-12T14:47:01.349Z,96.29
2022-11-12T14:49:50.211Z,96.08
2022-11-12T14:52:40.917Z,96.27
2022-11-12T14:55:30.452Z,96.51
2022-11-12T14:58:18.448Z,96.56
2022-11-12T15:01:55.754Z,96.83
2022-11-12T15:04:38.147Z,96.70
2022-11-12T15:07:25.900Z,96.78
2022-11-12T15:10:34.366Z,97.14
2022-11-12T15:13:23.398Z,100.00
2022-11-12T15:16:12.024Z,99.41
2022-11-12T15:19:18.509Z,98.18
2022-11-12T15:22:06.283Z,97.91
2022-11-12T15:24:52.826Z,97.83
2022-11-12T15:27:41.049Z,97.45
2022-11-12T15:30:30.543Z,97.25
2022-11-12T15:33:22.138Z,97.05
2022-11-12T15:36:17.784Z,97.60
2022-11-12T15:39:12.911Z,98.06
2022-11-12T15:42:01.285Z,98.08
2022-11-12T15:44:48.477Z,98.27
2022-11-12T15:47:34.860Z,98.35
2022-11-12T15:50:22.696Z,98.70
2022-11-12T15:53:08.800Z,98.55
2022-11-12T15:55:56.527Z,100.00
2022-11-12T15:58:42.635Z,99.95
2022-11-12T16:01:28.975Z,99.46
2022-11-12T16:04:15.838Z,99.60
2022-11-12T16:07:02.455Z,99.55
2022-11-12T16:09:48.819Z,99.99
2022-11-12T16:12:36.340Z,99.57
2022-11-12T16:15:25.469Z,100.00
2022-11-12T16:18:11.969Z,99.97
2022-11-12T16:20:58.171Z,100.00
2022-11-12T16:23:44.467Z,100.00
2022-11-12T16:26:33.225Z,100.00
2022-11-12T16:29:21.059Z,100.00
2022-11-12T16:32:07.634Z,100.00
2022-11-12T16:34:58.385Z,100.00
2022-11-12T16:37:48.145Z,100.00
2022-11-12T16:40:34.454Z,100.00
2022-11-12T16:43:20.588Z,100.00
2022-11-12T16:46:15.861Z,100.00
2022-11-12T16:49:03.247Z,99.85
2022-11-12T16:51:50.503Z,100.00
2022-11-12T16:54:36.828Z,100.00
2022-11-12T16:57:23.126Z,100.00
2022-11-12T17:00:12.805Z,100.00
2022-11-12T17:03:00.313Z,100.00
2022-11-12T17:05:51.832Z,100.00
2022-11-12T17:08:38.372Z,100.00
2022-11-12T17:11:24.679Z,100.00
2022-11-12T17:14:10.983Z,100.00
2022-11-12T17:16:57.763Z,100.00
2022-11-12T17:19:46.437Z,100.00
2022-11-12T17:22:32.593Z,100.00
2022-11-12T17:25:18.900Z,100.00
2022-11-12T17:28:05.169Z,100.00
2022-11-12T17:30:51.358Z,100.00
2022-11-12T17:33:42.100Z,100.00
2022-11-12T17:36:29.663Z,100.00
2022-11-12T17:39:16.063Z,100.00
2022-11-12T17:42:02.247Z,100.00
2022-11-12T17:44:48.872Z,100.00
2022-11-12T17:47:40.143Z,100.00
2022-11-12T17:50:27.191Z,100.00
2022-11-12T17:53:15.005Z,100.00
2022-11-12T17:56:01.793Z,100.00
2022-11-12T17:58:49.664Z,100.00
2022-11-12T18:01:36.086Z,100.00
2022-11-12T18:04:23.954Z,100.00
2022-11-12T18:07:10.408Z,100.00
2022-11-12T18:09:57.794Z,100.00
2022-11-12T18:12:44.034Z,100.00
2022-11-12T18:15:31.764Z,100.00
2022-11-12T18:18:18.686Z,100.00
2022-11-12T18:21:05.734Z,100.00
2022-11-12T18:23:52.332Z,100.00
2022-11-12T18:26:40.087Z,100.00
2022-11-12T18:29:26.260Z,100.00
2022-11-12T18:32:12.325Z,100.00
2022-11-12T18:34:58.626Z,100.00
2022-11-12T18:37:45.699Z,100.00
2022-11-12T18:40:32.040Z,100.00
2022-11-12T18:43:19.621Z,100.00
2022-11-12T18:46:07.390Z,100.00
2022-11-12T18:48:53.863Z,100.00
2022-11-12T18:51:40.458Z,100.00
2022-11-12T18:54:26.719Z,100.00
2022-11-12T18:57:13.031Z,100.00
2022-11-12T19:00:00.614Z,100.00
2022-11-12T19:02:46.927Z,100.00
2022-11-12T19:05:33.243Z,100.00
2022-11-12T19:08:19.512Z,100.00
2022-11-12T19:11:07.743Z,100.00
2022-11-12T19:13:55.270Z,100.00
2022-11-12T19:16:44.660Z,100.00
2022-11-12T19:19:31.261Z,100.00
2022-11-12T19:22:17.321Z,100.00
2022-11-12T19:25:03.557Z,100.00
2022-11-12T19:27:50.098Z,100.00
2022-11-12T19:30:36.558Z,100.00
2022-11-12T19:33:24.389Z,100.00
2022-11-12T19:36:14.011Z,100.00
2022-11-12T19:39:02.465Z,100.00
2022-11-12T19:41:48.799Z,100.00
2022-11-12T19:44:34.880Z,100.00
2022-11-12T19:47:20.948Z,100.00
2022-11-12T19:50:09.764Z,100.00
2022-11-12T19:52:56.283Z,100.00
2022-11-12T19:55:42.591Z,100.00
2022-11-12T19:58:29.566Z,100.00
2022-11-12T20:01:18.106Z,100.00
2022-11-12T20:04:04.342Z,100.00
2022-11-12T20:06:51.808Z,100.00
2022-11-12T20:09:38.258Z,100.00
2022-11-12T20:12:25.139Z,100.00
2022-11-12T20:15:11.803Z,100.00
2022-11-12T20:17:57.925Z,100.00
2022-11-12T20:20:47.610Z,100.00
2022-11-12T20:23:36.208Z,100.00
2022-11-12T20:26:22.266Z,100.00
2022-11-12T20:29:08.511Z,100.00
2022-11-12T20:31:54.927Z,100.00
2022-11-12T20:34:41.195Z,100.00
2022-11-12T20:37:27.615Z,100.00
2022-11-12T20:40:15.037Z,100.00
2022-11-12T20:43:01.388Z,100.00
2022-11-12T20:45:51.609Z,100.00
2022-11-12T20:48:42.872Z,100.00
2022-11-12T20:51:30.201Z,100.00
2022-11-12T20:54:16.625Z,100.00
2022-11-12T20:57:04.146Z,100.00
2022-11-12T20:59:51.644Z,100.00
2022-11-12T21:02:38.517Z,100.00
2022-11-12T21:05:24.764Z,100.00
2022-11-12T21:08:10.955Z,100.00
2022-11-12T21:10:57.915Z,100.00
2022-11-12T21:13:45.716Z,100.00
2022-11-12T21:16:32.374Z,100.00
2022-11-12T21:19:18.605Z,100.00
2022-11-12T21:22:04.647Z,100.00
2022-11-12T21:24:50.963Z,100.00
2022-11-12T21:27:37.146Z,100.00
2022-11-12T21:30:24.713Z,100.00
2022-11-12T21:33:10.860Z,100.00
2022-11-12T21:35:57.606Z,100.00
2022-11-12T21:38:43.964Z,100.00
2022-11-12T21:41:31.928Z,100.00
2022-11-12T21:44:18.371Z,100.00
2022-11-12T21:47:05.953Z,100.00
2022-11-12T21:49:52.276Z,100.00
2022-11-12T21:52:38.547Z,100.00
2022-11-12T21:55:24.517Z,100.00
2022-11-12T21:58:10.695Z,100.00
2022-11-12T22:00:57.041Z,100.00
2022-11-12T22:03:45.751Z,100.00
2022-11-12T22:06:31.906Z,100.00
2022-11-12T22:09:18.135Z,100.00
2022-11-12T22:12:04.359Z,100.00
2022-11-12T22:14:50.461Z,100.00
2022-11-12T22:17:36.677Z,100.00
2022-11-12T22:20:24.079Z,100.00
2022-11-12T22:23:10.327Z,100.00
2022-11-12T22:25:58.124Z,100.00
2022-11-12T22:28:44.738Z,100.00
2022-11-12T22:31:32.643Z,100.00
2022-11-12T22:34:18.735Z,100.00
2022-11-12T22:37:06.483Z,100.00
2022-11-12T22:39:52.537Z,100.00
2022-11-12T22:42:38.625Z,100.00
2022-11-12T22:45:24.815Z,100.00
2022-11-12T22:48:11.048Z,100.00
2022-11-12T22:50:59.670Z,100.00
2022-11-12T22:53:47.774Z,100.00
2022-11-12T22:56:34.191Z,100.00
2022-11-12T22:59:20.615Z,100.00
2022-11-12T23:02:07.819Z,100.00
2022-11-12T23:04:53.918Z,100.00
2022-11-12T23:07:40.019Z,100.00
2022-11-12T23:10:27.452Z,100.00
2022-11-12T23:13:13.522Z,100.00
2022-11-12T23:15:59.943Z,100.00
2022-11-12T23:18:46.361Z,100.00
2022-11-12T23:21:32.428Z,100.00
2022-11-12T23:24:18.625Z,100.00
2022-11-12T23:27:05.993Z,100.00
2022-11-12T23:29:52.375Z,100.00
2022-11-12T23:32:38.598Z,100.00
2022-11-12T23:35:24.613Z,100.00
2022-11-12T23:38:10.781Z,100.00
2022-11-12T23:40:57.611Z,100.00
2022-11-12T23:43:45.635Z,100.00
2022-11-12T23:46:31.902Z,100.00
2022-11-12T23:49:18.105Z,100.00
2022-11-12T23:52:04.445Z,100.00
2022-11-12T23:54:50.689Z,100.00
2022-11-12T23:57:36.769Z,100.00
